SEH623 OMAA-LGAV
Flight info
| Callsign | SEH623 |
|---|---|
| Flight time | N/A |
| Altitude | 36000 |
| Route | ORNEL T560 ELUDA G783 RIGIL M628 PEKEM MEDPO ITRUX Y511 PMA Z712 WEJ L677 CVO L617 NOZ L551 ANTAR UN133 KPC UN137 RIPLI UL995 VARIX |
| Aircraft | A321/M-S/C |
Departure
| Time | N/A |
|---|---|
| Airport | Zayed International Airport (OMAA) |
Arrival
| Time | 2026-05-07 19:04 |
|---|---|
| Airport | Athens Eleftherios Venizelos International Airport (LGAV) |
| Time | Latitude | Longitude | Altitude | Speed | Heading |
|---|---|---|---|---|---|
| 2026-05-07 18:30 | 36.18910 | 26.53792 | 36170 ft | 355 kts | 324° |
| 2026-05-07 18:31 | 36.20953 | 26.52147 | 36170 ft | 354 kts | 324° |
| 2026-05-07 18:31 | 36.24976 | 26.48905 | 36170 ft | 355 kts | 324° |
| 2026-05-07 18:32 | 36.29243 | 26.45461 | 36170 ft | 355 kts | 324° |
| 2026-05-07 18:32 | 36.33381 | 26.42118 | 36170 ft | 355 kts | 324° |
| 2026-05-07 18:33 | 36.37512 | 26.38776 | 36170 ft | 355 kts | 324° |
| 2026-05-07 18:33 | 36.41623 | 26.35445 | 36169 ft | 355 kts | 324° |
| 2026-05-07 18:34 | 36.45758 | 26.32092 | 36165 ft | 355 kts | 324° |
| 2026-05-07 18:34 | 36.49899 | 26.28729 | 36164 ft | 355 kts | 324° |
| 2026-05-07 18:35 | 36.54042 | 26.25359 | 36164 ft | 356 kts | 324° |
| 2026-05-07 18:35 | 36.58031 | 26.21726 | 36164 ft | 355 kts | 316° |
| 2026-05-07 18:36 | 36.61603 | 26.17493 | 36163 ft | 355 kts | 316° |
| 2026-05-07 18:36 | 36.65137 | 26.13249 | 36163 ft | 355 kts | 316° |
| 2026-05-07 18:37 | 36.68682 | 26.08959 | 36162 ft | 356 kts | 316° |
| 2026-05-07 18:37 | 36.72229 | 26.04646 | 36161 ft | 356 kts | 316° |
| 2026-05-07 18:38 | 36.75766 | 26.00334 | 36160 ft | 356 kts | 315° |
| 2026-05-07 18:38 | 36.79291 | 25.96028 | 36158 ft | 352 kts | 315° |
| 2026-05-07 18:39 | 36.82795 | 25.91738 | 36156 ft | 354 kts | 315° |
| 2026-05-07 18:39 | 36.86310 | 25.87428 | 36155 ft | 354 kts | 315° |
| 2026-05-07 18:40 | 36.89827 | 25.83110 | 36152 ft | 354 kts | 315° |
| 2026-05-07 18:40 | 36.93321 | 25.78814 | 35863 ft | 347 kts | 315° |
| 2026-05-07 18:40 | 36.94364 | 25.77530 | 35344 ft | 350 kts | 315° |
| 2026-05-07 18:41 | 36.96095 | 25.75398 | 34396 ft | 357 kts | 315° |
| 2026-05-07 18:41 | 36.97884 | 25.73195 | 33530 ft | 361 kts | 314° |
| 2026-05-07 18:41 | 36.99686 | 25.70974 | 32511 ft | 368 kts | 314° |
| 2026-05-07 18:41 | 37.01535 | 25.68693 | 31624 ft | 373 kts | 314° |
| 2026-05-07 18:42 | 37.03376 | 25.66422 | 30938 ft | 371 kts | 314° |
| 2026-05-07 18:42 | 37.05219 | 25.64146 | 30129 ft | 373 kts | 314° |
| 2026-05-07 18:42 | 37.07077 | 25.61850 | 29291 ft | 376 kts | 314° |
| 2026-05-07 18:42 | 37.08943 | 25.59542 | 28510 ft | 378 kts | 314° |
| 2026-05-07 18:43 | 37.10594 | 25.57500 | 27748 ft | 382 kts | 314° |
| 2026-05-07 18:43 | 37.12493 | 25.55150 | 26978 ft | 385 kts | 314° |
| 2026-05-07 18:43 | 37.14384 | 25.52809 | 26435 ft | 381 kts | 314° |
| 2026-05-07 18:43 | 37.16272 | 25.50468 | 25749 ft | 381 kts | 314° |
| 2026-05-07 18:44 | 37.18157 | 25.48127 | 25102 ft | 381 kts | 314° |
| 2026-05-07 18:44 | 37.20036 | 25.45792 | 24464 ft | 380 kts | 314° |
| 2026-05-07 18:44 | 37.21884 | 25.43471 | 23799 ft | 381 kts | 313° |
| 2026-05-07 18:44 | 37.23753 | 25.41125 | 23283 ft | 378 kts | 313° |
| 2026-05-07 18:45 | 37.25080 | 25.39419 | 22933 ft | 374 kts | 310° |
| 2026-05-07 18:45 | 37.26668 | 25.36853 | 22423 ft | 371 kts | 302° |
| 2026-05-07 18:45 | 37.27909 | 25.34045 | 21987 ft | 366 kts | 294° |
| 2026-05-07 18:45 | 37.28824 | 25.31081 | 21497 ft | 363 kts | 290° |
| 2026-05-07 18:46 | 37.29673 | 25.28106 | 21034 ft | 360 kts | 290° |
| 2026-05-07 18:46 | 37.30504 | 25.25148 | 20574 ft | 358 kts | 289° |
| 2026-05-07 18:46 | 37.31323 | 25.22193 | 20120 ft | 355 kts | 289° |
| 2026-05-07 18:46 | 37.32126 | 25.19268 | 19672 ft | 352 kts | 289° |
| 2026-05-07 18:47 | 37.32917 | 25.16366 | 19252 ft | 350 kts | 289° |
| 2026-05-07 18:47 | 37.33697 | 25.13486 | 18837 ft | 346 kts | 289° |
| 2026-05-07 18:47 | 37.34469 | 25.10624 | 18401 ft | 344 kts | 289° |
| 2026-05-07 18:47 | 37.35233 | 25.07783 | 17983 ft | 342 kts | 289° |
| 2026-05-07 18:48 | 37.35991 | 25.04956 | 17560 ft | 340 kts | 289° |
| 2026-05-07 18:48 | 37.36483 | 25.03100 | 17253 ft | 339 kts | 288° |
| 2026-05-07 18:48 | 37.37470 | 24.99384 | 16712 ft | 336 kts | 289° |
| 2026-05-07 18:48 | 37.38210 | 24.96602 | 16271 ft | 335 kts | 289° |
| 2026-05-07 18:49 | 37.38946 | 24.93836 | 15871 ft | 333 kts | 289° |
| 2026-05-07 18:49 | 37.39680 | 24.91073 | 15441 ft | 332 kts | 288° |
| 2026-05-07 18:49 | 37.40411 | 24.88320 | 15035 ft | 331 kts | 288° |
| 2026-05-07 18:49 | 37.40905 | 24.86462 | 14749 ft | 330 kts | 288° |
| 2026-05-07 18:50 | 37.41622 | 24.83759 | 14318 ft | 329 kts | 288° |
| 2026-05-07 18:50 | 37.42339 | 24.81052 | 13924 ft | 326 kts | 288° |
| 2026-05-07 18:50 | 37.43058 | 24.78334 | 13468 ft | 326 kts | 288° |
| 2026-05-07 18:50 | 37.43771 | 24.75636 | 13077 ft | 324 kts | 288° |
| 2026-05-07 18:51 | 37.44476 | 24.72966 | 12940 ft | 319 kts | 288° |
| 2026-05-07 18:51 | 37.45183 | 24.70286 | 12984 ft | 325 kts | 288° |
| 2026-05-07 18:51 | 37.45895 | 24.67586 | 12995 ft | 325 kts | 288° |
| 2026-05-07 18:51 | 37.46609 | 24.64877 | 12998 ft | 325 kts | 288° |
| 2026-05-07 18:52 | 37.47321 | 24.62169 | 12998 ft | 325 kts | 288° |
| 2026-05-07 18:52 | 37.48032 | 24.59463 | 12998 ft | 325 kts | 288° |
| 2026-05-07 18:52 | 37.48733 | 24.56791 | 12998 ft | 325 kts | 288° |
| 2026-05-07 18:52 | 37.49443 | 24.54084 | 12999 ft | 325 kts | 288° |
| 2026-05-07 18:53 | 37.50151 | 24.51381 | 12996 ft | 326 kts | 288° |
| 2026-05-07 18:53 | 37.50861 | 24.48668 | 12999 ft | 325 kts | 288° |
| 2026-05-07 18:53 | 37.51570 | 24.45958 | 12999 ft | 325 kts | 288° |
| 2026-05-07 18:53 | 37.52267 | 24.43286 | 12997 ft | 314 kts | 288° |
| 2026-05-07 18:54 | 37.52931 | 24.40738 | 12995 ft | 300 kts | 288° |
| 2026-05-07 18:54 | 37.53566 | 24.38296 | 12995 ft | 287 kts | 288° |
| 2026-05-07 18:54 | 37.54179 | 24.35935 | 12995 ft | 282 kts | 287° |
| 2026-05-07 18:54 | 37.54787 | 24.33592 | 12966 ft | 280 kts | 287° |
| 2026-05-07 18:55 | 37.55389 | 24.31269 | 12620 ft | 279 kts | 287° |
| 2026-05-07 18:55 | 37.56044 | 24.28964 | 12283 ft | 279 kts | 291° |
| 2026-05-07 18:55 | 37.56865 | 24.26751 | 11946 ft | 278 kts | 296° |
| 2026-05-07 18:55 | 37.57768 | 24.24597 | 11579 ft | 279 kts | 296° |
| 2026-05-07 18:56 | 37.58687 | 24.22436 | 11163 ft | 281 kts | 297° |
| 2026-05-07 18:56 | 37.59617 | 24.20265 | 10766 ft | 281 kts | 297° |
| 2026-05-07 18:56 | 37.60552 | 24.18091 | 10350 ft | 283 kts | 297° |
| 2026-05-07 18:56 | 37.61433 | 24.16046 | 9942 ft | 284 kts | 297° |
| 2026-05-07 18:57 | 37.62330 | 24.13968 | 9458 ft | 288 kts | 297° |
| 2026-05-07 18:57 | 37.63281 | 24.11763 | 8915 ft | 292 kts | 297° |
| 2026-05-07 18:57 | 37.64260 | 24.09496 | 8364 ft | 296 kts | 297° |
| 2026-05-07 18:57 | 37.65247 | 24.07212 | 7815 ft | 298 kts | 297° |
| 2026-05-07 18:58 | 37.66243 | 24.04903 | 7264 ft | 300 kts | 297° |
| 2026-05-07 18:58 | 37.67240 | 24.02592 | 6713 ft | 301 kts | 297° |
| 2026-05-07 18:58 | 37.68243 | 24.00266 | 6165 ft | 302 kts | 297° |
| 2026-05-07 18:58 | 37.69245 | 23.97942 | 5613 ft | 302 kts | 296° |
| 2026-05-07 18:59 | 37.70248 | 23.95612 | 5063 ft | 301 kts | 296° |
| 2026-05-07 18:59 | 37.71246 | 23.93289 | 4511 ft | 300 kts | 296° |
| 2026-05-07 18:59 | 37.72236 | 23.90988 | 4135 ft | 293 kts | 296° |
| 2026-05-07 18:59 | 37.73183 | 23.88785 | 4028 ft | 278 kts | 296° |
| 2026-05-07 19:00 | 37.74084 | 23.86684 | 4001 ft | 269 kts | 296° |
| 2026-05-07 19:00 | 37.74971 | 23.84613 | 3985 ft | 266 kts | 296° |
| 2026-05-07 19:00 | 37.75881 | 23.82601 | 3617 ft | 265 kts | 304° |
| 2026-05-07 19:00 | 37.77265 | 23.81083 | 3173 ft | 265 kts | 330° |
| 2026-05-07 19:01 | 37.79043 | 23.80489 | 3045 ft | 269 kts | 356° |
| 2026-05-07 19:01 | 37.80865 | 23.80901 | 3002 ft | 263 kts | 22° |
| 2026-05-07 19:01 | 37.82319 | 23.82126 | 2811 ft | 246 kts | 41° |
| 2026-05-07 19:01 | 37.83576 | 23.83538 | 2524 ft | 238 kts | 41° |
| 2026-05-07 19:02 | 37.84818 | 23.84837 | 2221 ft | 221 kts | 39° |
| 2026-05-07 19:02 | 37.85972 | 23.85982 | 1926 ft | 199 kts | 37° |
| 2026-05-07 19:02 | 37.87004 | 23.86984 | 1658 ft | 177 kts | 36° |
| 2026-05-07 19:02 | 37.87936 | 23.87881 | 1396 ft | 160 kts | 36° |
| 2026-05-07 19:03 | 37.88793 | 23.88723 | 1068 ft | 155 kts | 36° |
| 2026-05-07 19:03 | 37.89658 | 23.89543 | 933 ft | 156 kts | 35° |
| 2026-05-07 19:03 | 37.90508 | 23.90352 | 711 ft | 152 kts | 34° |
| 2026-05-07 19:03 | 37.91367 | 23.91159 | 565 ft | 149 kts | 36° |
| 2026-05-07 19:04 | 37.92228 | 23.91964 | 387 ft | 153 kts | 35° |
| 2026-05-07 19:04 | 37.93019 | 23.92719 | 323 ft | 118 kts | 36° |
| 2026-05-07 19:04 | 37.93438 | 23.93116 | 323 ft | 37 kts | 36° |
| 2026-05-07 19:04 | 37.93586 | 23.93331 | 323 ft | 30 kts | 60° |
| 2026-05-07 19:05 | 37.93660 | 23.93544 | 323 ft | 23 kts | 67° |
| 2026-05-07 19:05 | 37.93755 | 23.93695 | 323 ft | 22 kts | 36° |
| 2026-05-07 19:05 | 37.93879 | 23.93810 | 323 ft | 23 kts | 37° |